N12973 KIND-
Flight info
| Callsign | N12973 |
|---|---|
| Flight time | N/A |
| Altitude | VFR/055 |
| Route | EAST |
| Aircraft | C172/L-DOV/C |
Departure
| Time | 2026-05-07 03:02 |
|---|---|
| Airport | Indianapolis International Airport (KIND) |
Arrival
| Time | N/A |
|---|---|
| Airport | - |
| Time | Latitude | Longitude | Altitude | Speed | Heading |
|---|---|---|---|---|---|
| 2026-05-07 02:55 | 39.72617 | -86.27310 | 784 ft | 0 kts | 225° |
| 2026-05-07 02:57 | 39.72614 | -86.27314 | 784 ft | 0 kts | 223° |
| 2026-05-07 02:58 | 39.72621 | -86.27358 | 785 ft | 8 kts | 303° |
| 2026-05-07 02:58 | 39.72645 | -86.27424 | 786 ft | 8 kts | 258° |
| 2026-05-07 02:58 | 39.72637 | -86.27442 | 787 ft | 0 kts | 226° |
| 2026-05-07 02:58 | 39.72618 | -86.27457 | 787 ft | 9 kts | 192° |
| 2026-05-07 02:59 | 39.72524 | -86.27380 | 785 ft | 24 kts | 137° |
| 2026-05-07 02:59 | 39.72396 | -86.27216 | 782 ft | 23 kts | 135° |
| 2026-05-07 02:59 | 39.72288 | -86.27072 | 779 ft | 19 kts | 135° |
| 2026-05-07 02:59 | 39.72192 | -86.26944 | 777 ft | 21 kts | 135° |
| 2026-05-07 03:00 | 39.72102 | -86.26955 | 775 ft | 0 kts | 225° |
| 2026-05-07 03:01 | 39.72101 | -86.26955 | 775 ft | 1 kts | 227° |
| 2026-05-07 03:01 | 39.72039 | -86.27047 | 775 ft | 16 kts | 263° |
| 2026-05-07 03:01 | 39.72182 | -86.27249 | 782 ft | 53 kts | 315° |
| 2026-05-07 03:01 | 39.72505 | -86.27700 | 839 ft | 76 kts | 305° |
| 2026-05-07 03:02 | 39.72904 | -86.28189 | 967 ft | 83 kts | 317° |
| 2026-05-07 03:02 | 39.73292 | -86.28699 | 1198 ft | 75 kts | 311° |
| 2026-05-07 03:02 | 39.73612 | -86.29165 | 1457 ft | 65 kts | 308° |
| 2026-05-07 03:02 | 39.73889 | -86.29627 | 1638 ft | 63 kts | 306° |
| 2026-05-07 03:03 | 39.74222 | -86.29989 | 1773 ft | 71 kts | 343° |
| 2026-05-07 03:03 | 39.74676 | -86.29675 | 1956 ft | 85 kts | 43° |
| 2026-05-07 03:03 | 39.74979 | -86.29029 | 2163 ft | 81 kts | 47° |
| 2026-05-07 03:03 | 39.75219 | -86.28367 | 2315 ft | 84 kts | 50° |
| 2026-05-07 03:04 | 39.75470 | -86.27679 | 2475 ft | 83 kts | 50° |
| 2026-05-07 03:04 | 39.75729 | -86.27006 | 2643 ft | 82 kts | 43° |
| 2026-05-07 03:04 | 39.76037 | -86.26368 | 2757 ft | 88 kts | 48° |
| 2026-05-07 03:04 | 39.76302 | -86.25698 | 2970 ft | 82 kts | 48° |
| 2026-05-07 03:05 | 39.76586 | -86.24971 | 3002 ft | 98 kts | 48° |
| 2026-05-07 03:05 | 39.76862 | -86.24141 | 3022 ft | 100 kts | 54° |
| 2026-05-07 03:05 | 39.77163 | -86.23301 | 3011 ft | 104 kts | 50° |
| 2026-05-07 03:05 | 39.77521 | -86.22515 | 3032 ft | 100 kts | 44° |
| 2026-05-07 03:06 | 39.77861 | -86.21698 | 3041 ft | 103 kts | 51° |
| 2026-05-07 03:06 | 39.78195 | -86.20874 | 3054 ft | 102 kts | 47° |
| 2026-05-07 03:06 | 39.78489 | -86.19996 | 2958 ft | 118 kts | 75° |
| 2026-05-07 03:06 | 39.78443 | -86.18921 | 2986 ft | 116 kts | 85° |
| 2026-05-07 03:07 | 39.78361 | -86.17874 | 2994 ft | 117 kts | 88° |
| 2026-05-07 03:07 | 39.78268 | -86.16834 | 3017 ft | 114 kts | 88° |
| 2026-05-07 03:07 | 39.78157 | -86.15823 | 3073 ft | 111 kts | 87° |
| 2026-05-07 03:07 | 39.78037 | -86.14814 | 3081 ft | 113 kts | 90° |
| 2026-05-07 03:08 | 39.77912 | -86.13775 | 3031 ft | 118 kts | 91° |
| 2026-05-07 03:08 | 39.77784 | -86.12743 | 3079 ft | 113 kts | 91° |
| 2026-05-07 03:08 | 39.77636 | -86.11751 | 2806 ft | 117 kts | 91° |
| 2026-05-07 03:08 | 39.77403 | -86.10750 | 2568 ft | 111 kts | 109° |
| 2026-05-07 03:09 | 39.77072 | -86.09826 | 2227 ft | 117 kts | 113° |
| 2026-05-07 03:09 | 39.76747 | -86.08871 | 1921 ft | 115 kts | 107° |
| 2026-05-07 03:09 | 39.76464 | -86.07906 | 1794 ft | 117 kts | 108° |
| 2026-05-07 03:09 | 39.76188 | -86.06910 | 1811 ft | 116 kts | 105° |
| 2026-05-07 03:10 | 39.75918 | -86.05914 | 1792 ft | 118 kts | 117° |
| 2026-05-07 03:10 | 39.75335 | -86.05182 | 1829 ft | 116 kts | 141° |
| 2026-05-07 03:10 | 39.74705 | -86.04515 | 1836 ft | 116 kts | 139° |
| 2026-05-07 03:10 | 39.74117 | -86.03774 | 1805 ft | 120 kts | 134° |
| 2026-05-07 03:11 | 39.73548 | -86.02990 | 1805 ft | 120 kts | 131° |
| 2026-05-07 03:11 | 39.73012 | -86.02178 | 1846 ft | 116 kts | 124° |
| 2026-05-07 03:11 | 39.72503 | -86.01365 | 1891 ft | 111 kts | 115° |
| 2026-05-07 03:11 | 39.72413 | -86.00414 | 1872 ft | 104 kts | 63° |
| 2026-05-07 03:12 | 39.72903 | -85.99835 | 1814 ft | 97 kts | 14° |
| 2026-05-07 03:12 | 39.73506 | -85.99821 | 1863 ft | 86 kts | 330° |
| 2026-05-07 03:12 | 39.73917 | -86.00407 | 1736 ft | 98 kts | 298° |
| 2026-05-07 03:12 | 39.74112 | -86.01194 | 1826 ft | 88 kts | 289° |
| 2026-05-07 03:13 | 39.74230 | -86.02002 | 1817 ft | 87 kts | 285° |
| 2026-05-07 03:13 | 39.74308 | -86.02786 | 1827 ft | 87 kts | 280° |
| 2026-05-07 03:13 | 39.74339 | -86.03574 | 1849 ft | 87 kts | 280° |
| 2026-05-07 03:13 | 39.74494 | -86.04288 | 1859 ft | 79 kts | 314° |
| 2026-05-07 03:14 | 39.74963 | -86.04463 | 1744 ft | 71 kts | 6° |
| 2026-05-07 03:14 | 39.75370 | -86.04228 | 1610 ft | 66 kts | 36° |
| 2026-05-07 03:14 | 39.75357 | -86.02978 | 1191 ft | 72 kts | 119° |
| 2026-05-07 03:15 | 39.75232 | -86.02348 | 955 ft | 70 kts | 109° |
| 2026-05-07 03:15 | 39.75119 | -86.01797 | 857 ft | 49 kts | 102° |
| 2026-05-07 03:15 | 39.75046 | -86.01446 | 860 ft | 33 kts | 97° |
| 2026-05-07 03:15 | 39.74993 | -86.01222 | 860 ft | 21 kts | 103° |
| 2026-05-07 03:16 | 39.74960 | -86.01067 | 859 ft | 16 kts | 108° |
| 2026-05-07 03:16 | 39.74928 | -86.00925 | 857 ft | 14 kts | 131° |